Time;durP1;ratioP1;P1;durP2;ratioP2;P2;SDS_P1;SDS_P2;PMS_P1;PMS_P2;Temp;Humidity;BMP_temperature;BMP_pressure;BME280_temperature;BME280_humidity;BME280_pressure;Samples;Min_cycle;Max_cycle;Signal;HPM_P1;HPM_P2
2021/06/20 00:01:35;;;;;;;24.17;21.97;;;19.30;99.90;;;;;;5062833;28;20500;-77
2021/06/20 00:04:03;;;;;;;28.30;24.43;;;19.20;99.90;;;;;;5064133;28;20515;-76
2021/06/20 00:06:34;;;;;;;24.70;22.30;;;19.20;99.90;;;;;;5068097;28;20515;-77
2021/06/20 00:09:04;;;;;;;28.27;25.43;;;19.10;99.90;;;;;;5072547;28;20471;-76
2021/06/20 00:11:32;;;;;;;28.67;25.80;;;19.10;99.90;;;;;;5077932;28;21069;-77
2021/06/20 00:14:00;;;;;;;26.43;23.60;;;19.10;99.90;;;;;;5081928;28;20449;-76
2021/06/20 00:16:27;;;;;;;23.10;20.60;;;19.10;99.90;;;;;;5090327;28;20451;-78
2021/06/20 00:18:57;;;;;;;23.47;21.23;;;19.20;99.90;;;;;;5083330;28;20464;-75
2021/06/20 00:21:34;;;;;;;26.07;23.53;;;19.20;99.90;;;;;;5085670;28;20491;-77
2021/06/20 00:24:01;;;;;;;28.57;25.77;;;19.20;99.90;;;;;;5067414;28;20482;-76
2021/06/20 00:26:28;;;;;;;26.67;23.80;;;19.20;99.90;;;;;;5089516;28;20451;-78
2021/06/20 00:28:58;;;;;;;28.33;25.47;;;19.20;99.90;;;;;;5076579;28;20463;-77
2021/06/20 00:31:25;;;;;;;26.73;23.93;;;19.10;99.90;;;;;;5074424;28;20491;-77
2021/06/20 00:33:52;;;;;;;27.67;25.07;;;19.20;99.90;;;;;;5084667;28;20449;-77
2021/06/20 00:36:21;;;;;;;27.67;25.03;;;19.20;99.90;;;;;;5077194;28;20496;-77
2021/06/20 00:38:48;;;;;;;29.90;26.80;;;19.20;99.90;;;;;;5084861;28;20497;-76
2021/06/20 00:41:16;;;;;;;32.87;29.70;;;19.30;99.90;;;;;;5079649;28;20462;-76
2021/06/20 00:43:43;;;;;;;24.93;22.40;;;19.20;99.90;;;;;;5083751;28;20472;-77
2021/06/20 00:46:10;;;;;;;29.07;25.90;;;19.20;99.90;;;;;;5073606;28;20531;-76
2021/06/20 00:48:38;;;;;;;27.50;24.80;;;19.20;99.90;;;;;;5081245;28;20484;-78
2021/06/20 00:51:06;;;;;;;35.07;24.90;;;19.30;99.90;;;;;;5087554;28;20447;-76
2021/06/20 00:53:36;;;;;;;29.17;26.30;;;19.30;99.90;;;;;;5079744;28;20448;-77
2021/06/20 00:56:03;;;;;;;32.10;28.70;;;19.30;99.90;;;;;;5091943;28;20531;-77
2021/06/20 00:58:31;;;;;;;25.17;22.57;;;19.30;99.90;;;;;;5079191;28;20449;-77
2021/06/20 01:00:58;;;;;;;26.47;23.90;;;19.30;99.90;;;;;;5084775;28;20449;-77
2021/06/20 01:03:26;;;;;;;28.67;25.80;;;19.30;99.90;;;;;;5078394;28;20477;-77
2021/06/20 01:05:53;;;;;;;29.90;26.90;;;19.40;99.90;;;;;;5079294;28;20545;-76
2021/06/20 01:08:20;;;;;;;31.10;27.50;;;19.40;99.90;;;;;;5085080;28;20660;-76
2021/06/20 01:10:49;;;;;;;32.70;27.33;;;19.40;99.90;;;;;;5080873;28;20473;-77
2021/06/20 01:13:18;;;;;;;27.50;24.80;;;19.40;99.90;;;;;;5079545;28;20651;-76
2021/06/20 01:15:49;;;;;;;28.17;25.30;;;19.40;99.90;;;;;;5082991;28;20468;-76
2021/06/20 01:18:17;;;;;;;28.37;25.60;;;19.40;99.90;;;;;;5094912;28;20459;-75
2021/06/20 01:20:46;;;;;;;30.27;27.27;;;19.40;99.90;;;;;;5084519;28;20813;-76
2021/06/20 01:23:14;;;;;;;29.63;26.70;;;19.30;99.90;;;;;;5085210;28;20529;-77
2021/06/20 01:25:43;;;;;;;27.43;24.83;;;19.30;99.90;;;;;;5081593;28;20534;-77
2021/06/20 01:28:12;;;;;;;30.97;27.57;;;19.30;99.90;;;;;;5083305;28;20848;-77
2021/06/20 01:30:44;;;;;;;27.23;24.47;;;19.30;99.90;;;;;;5081868;28;20452;-77
2021/06/20 01:33:13;;;;;;;31.23;28.17;;;19.30;99.90;;;;;;5079206;28;20462;-78
2021/06/20 01:35:41;;;;;;;31.00;28.00;;;19.30;99.90;;;;;;5079639;28;20951;-75
2021/06/20 01:38:10;;;;;;;30.70;27.40;;;19.40;99.90;;;;;;5076599;28;20843;-75
2021/06/20 01:40:39;;;;;;;30.50;25.07;;;19.30;99.90;;;;;;5080351;28;20471;-75
2021/06/20 01:43:06;;;;;;;30.53;27.57;;;19.40;99.90;;;;;;5071797;28;20552;-75
2021/06/20 01:45:36;;;;;;;29.43;25.80;;;19.40;99.90;;;;;;5085686;28;20478;-75
2021/06/20 01:48:04;;;;;;;29.83;26.87;;;19.40;99.90;;;;;;5083125;28;20503;-76
2021/06/20 01:50:32;;;;;;;31.63;28.43;;;19.40;99.90;;;;;;5086513;28;20871;-76
2021/06/20 01:53:04;;;;;;;33.43;27.20;;;19.50;99.90;;;;;;5079214;28;20463;-75
2021/06/20 01:55:32;;;;;;;31.30;28.00;;;19.50;99.90;;;;;;5088142;28;20491;-74
2021/06/20 01:58:01;;;;;;;29.37;26.50;;;19.50;99.90;;;;;;5078429;28;20464;-82
2021/06/20 02:00:28;;;;;;;33.77;30.40;;;19.60;99.90;;;;;;5083850;28;20474;-74
2021/06/20 02:02:56;;;;;;;29.47;26.70;;;19.60;99.90;;;;;;5078068;28;20484;-75
2021/06/20 02:05:27;;;;;;;28.20;25.40;;;19.70;99.90;;;;;;5078871;28;20505;-74
2021/06/20 02:07:54;;;;;;;27.33;24.53;;;19.70;99.90;;;;;;5076174;28;20999;-74
2021/06/20 02:10:22;;;;;;;30.67;27.90;;;19.80;99.90;;;;;;5072600;28;20492;-75
2021/06/20 02:12:51;;;;;;;29.93;26.60;;;19.80;99.90;;;;;;5074228;28;20466;-76
2021/06/20 02:15:22;;;;;;;26.83;24.00;;;19.80;99.90;;;;;;5083677;28;20487;-77
2021/06/20 02:17:50;;;;;;;28.50;25.83;;;19.90;99.90;;;;;;5084292;28;20472;-75
2021/06/20 02:20:21;;;;;;;29.30;26.30;;;19.90;99.90;;;;;;5077099;28;20433;-77
2021/06/20 02:22:53;;;;;;;31.60;27.27;;;19.90;99.90;;;;;;5069048;28;20471;-75
2021/06/20 02:25:22;;;;;;;28.90;26.10;;;19.80;99.90;;;;;;5074544;28;20915;-76
2021/06/20 02:27:51;;;;;;;31.43;28.07;;;19.70;99.90;;;;;;5074041;28;20488;-75
2021/06/20 02:30:22;;;;;;;35.90;32.27;;;19.70;99.90;;;;;;5075977;28;20456;-77
2021/06/20 02:32:51;;;;;;;30.87;28.00;;;19.70;99.90;;;;;;5074587;28;20484;-75
2021/06/20 02:35:19;;;;;;;34.70;31.27;;;19.70;99.90;;;;;;5086107;28;20492;-75
2021/06/20 02:37:47;;;;;;;33.70;30.20;;;19.60;99.90;;;;;;5069095;28;20520;-76
2021/06/20 02:40:17;;;;;;;35.43;31.93;;;19.60;99.90;;;;;;5073685;28;20991;-75
2021/06/20 02:42:45;;;;;;;30.90;27.63;;;19.60;99.90;;;;;;5073717;28;20469;-75
2021/06/20 02:45:16;;;;;;;30.73;27.93;;;19.60;99.90;;;;;;5078673;28;20456;-74
2021/06/20 02:47:45;;;;;;;28.70;25.30;;;19.70;99.90;;;;;;5074475;28;20890;-72
2021/06/20 02:50:15;;;;;;;31.80;28.03;;;19.70;99.90;;;;;;5071701;28;20510;-72
2021/06/20 02:52:42;;;;;;;37.33;33.53;;;19.70;99.90;;;;;;5071459;28;20480;-72
2021/06/20 02:55:10;;;;;;;35.50;31.77;;;19.70;99.90;;;;;;5072141;28;20523;-71
2021/06/20 02:57:37;;;;;;;33.87;30.50;;;19.70;99.90;;;;;;5070952;28;20441;-71
2021/06/20 03:00:06;;;;;;;37.03;33.03;;;19.70;99.90;;;;;;5072192;28;20563;-71
2021/06/20 03:02:33;;;;;;;39.30;33.13;;;19.60;99.90;;;;;;5082858;28;20548;-72
2021/06/20 03:05:04;;;;;;;38.47;34.83;;;19.60;99.90;;;;;;5084978;28;20933;-73
2021/06/20 03:07:31;;;;;;;39.93;35.47;;;19.60;99.90;;;;;;5072877;28;21030;-73
2021/06/20 03:09:58;;;;;;;34.80;31.17;;;19.70;99.90;;;;;;5072254;28;20488;-72
2021/06/20 03:12:26;;;;;;;34.03;30.60;;;19.70;99.90;;;;;;5061268;28;20556;-72
2021/06/20 03:14:53;;;;;;;37.33;33.60;;;19.70;99.90;;;;;;5072132;28;20474;-73
2021/06/20 03:17:21;;;;;;;34.60;30.97;;;19.70;99.90;;;;;;5085324;28;20469;-73
2021/06/20 03:19:49;;;;;;;34.53;31.00;;;19.60;99.90;;;;;;5079711;28;20492;-72
2021/06/20 03:22:18;;;;;;;37.43;33.50;;;19.70;99.90;;;;;;5083211;28;20468;-75
2021/06/20 03:24:48;;;;;;;33.00;29.70;;;19.70;99.90;;;;;;5077868;28;20448;-74
2021/06/20 03:27:16;;;;;;;29.67;26.60;;;19.80;99.90;;;;;;5080742;28;20449;-74
2021/06/20 03:29:45;;;;;;;29.53;26.83;;;19.80;99.90;;;;;;5073105;28;20473;-73
2021/06/20 03:32:13;;;;;;;32.33;29.27;;;19.80;99.90;;;;;;5072392;28;20464;-73
2021/06/20 03:34:41;;;;;;;29.77;26.77;;;19.80;99.90;;;;;;5073114;28;20502;-75
2021/06/20 03:37:09;;;;;;;27.27;24.67;;;19.80;99.90;;;;;;5073861;28;20481;-73
2021/06/20 03:39:38;;;;;;;26.47;23.93;;;19.90;99.90;;;;;;5087847;28;20949;-75
2021/06/20 03:42:05;;;;;;;29.23;25.10;;;19.80;99.90;;;;;;5073972;28;20591;-73
2021/06/20 03:44:33;;;;;;;28.63;25.87;;;19.80;99.90;;;;;;5077230;28;20448;-73
2021/06/20 03:47:01;;;;;;;28.63;25.77;;;19.70;99.90;;;;;;5076674;28;20480;-74
2021/06/20 03:49:28;;;;;;;24.73;22.20;;;19.70;99.90;;;;;;5077912;28;20485;-73
2021/06/20 03:51:55;;;;;;;20.93;18.93;;;19.70;99.90;;;;;;5072216;28;20479;-75
2021/06/20 03:54:24;;;;;;;20.13;18.00;;;19.70;99.90;;;;;;5071916;28;20545;-74
2021/06/20 03:56:53;;;;;;;18.73;16.87;;;19.70;99.90;;;;;;5072734;28;20449;-73
2021/06/20 03:59:23;;;;;;;17.23;13.90;;;19.60;99.90;;;;;;5073615;28;20444;-73
2021/06/20 04:01:51;;;;;;;14.50;13.27;;;19.60;99.90;;;;;;5072014;28;20513;-73
2021/06/20 04:04:21;;;;;;;16.20;13.90;;;19.60;99.90;;;;;;5086131;28;20495;-74
2021/06/20 04:06:48;;;;;;;16.00;13.80;;;19.60;99.90;;;;;;5078596;28;20537;-74
2021/06/20 04:09:15;;;;;;;12.77;11.47;;;19.60;99.90;;;;;;5071656;28;20484;-73
2021/06/20 04:11:43;;;;;;;11.90;10.40;;;19.70;99.90;;;;;;5073192;28;20479;-73
2021/06/20 04:14:11;;;;;;;11.90;10.00;;;19.70;99.90;;;;;;5079895;28;20537;-72
2021/06/20 04:16:40;;;;;;;8.47;7.63;;;19.70;99.90;;;;;;5072060;28;20449;-75
2021/06/20 04:19:07;;;;;;;10.67;8.90;;;19.60;99.90;;;;;;5071240;28;20605;-75
2021/06/20 04:21:34;;;;;;;10.70;8.03;;;19.70;99.90;;;;;;5071541;28;20469;-75
2021/06/20 04:24:02;;;;;;;9.90;8.63;;;19.70;99.90;;;;;;5071681;28;20452;-74
2021/06/20 04:26:35;;;;;;;9.43;6.50;;;19.70;99.90;;;;;;5072519;28;20449;-74
2021/06/20 04:29:02;;;;;;;12.47;7.07;;;19.60;99.90;;;;;;5068266;28;20473;-75
2021/06/20 04:31:32;;;;;;;8.17;7.37;;;19.60;99.90;;;;;;5076257;28;20471;-75
2021/06/20 04:33:59;;;;;;;8.93;6.53;;;19.70;99.90;;;;;;5071488;28;20831;-73
2021/06/20 04:36:28;;;;;;;12.17;7.10;;;19.70;99.90;;;;;;5071960;28;20459;-75
2021/06/20 04:38:56;;;;;;;7.20;5.97;;;19.70;99.90;;;;;;5074105;28;20469;-75
2021/06/20 04:41:24;;;;;;;6.20;5.40;;;19.70;99.90;;;;;;5071649;28;20564;-75
2021/06/20 04:44:02;;;;;;;5.83;5.27;;;19.60;99.90;;;;;;5071755;28;20574;-75
2021/06/20 04:46:34;;;;;;;10.23;4.30;;;19.60;99.90;;;;;;5066970;28;20444;-73
2021/06/20 04:49:03;;;;;;;6.10;4.77;;;19.60;99.90;;;;;;5070677;28;20492;-72
2021/06/20 04:51:31;;;;;;;6.53;4.93;;;19.50;99.90;;;;;;5070807;28;20464;-73
2021/06/20 04:53:59;;;;;;;7.10;4.00;;;19.50;99.90;;;;;;5071045;28;20476;-74
2021/06/20 04:56:27;;;;;;;7.80;4.77;;;19.50;99.90;;;;;;5075184;28;20452;-72
2021/06/20 04:58:55;;;;;;;4.00;3.30;;;19.50;99.90;;;;;;5070404;28;20516;-73
2021/06/20 05:01:22;;;;;;;8.23;4.30;;;19.50;99.90;;;;;;5074951;28;20971;-74
2021/06/20 05:03:52;;;;;;;5.13;3.93;;;19.50;99.90;;;;;;5071607;28;20773;-73
2021/06/20 05:06:20;;;;;;;5.33;4.10;;;19.50;99.90;;;;;;5074816;28;20456;-73
2021/06/20 05:08:48;;;;;;;7.00;3.90;;;19.60;99.90;;;;;;5076807;28;20969;-71
2021/06/20 05:11:16;;;;;;;4.90;3.60;;;19.60;99.90;;;;;;5081441;28;20471;-71
2021/06/20 05:13:43;;;;;;;9.30;4.33;;;19.70;99.90;;;;;;5075161;28;20455;-74
2021/06/20 05:16:11;;;;;;;4.77;3.70;;;19.70;99.90;;;;;;5082941;28;20488;-73
2021/06/20 05:18:38;;;;;;;6.60;4.07;;;19.70;99.90;;;;;;5070929;28;20441;-73
2021/06/20 05:21:07;;;;;;;8.43;5.23;;;19.80;99.90;;;;;;5074208;28;20970;-74
2021/06/20 05:23:34;;;;;;;8.23;4.60;;;19.80;99.90;;;;;;5074843;28;20892;-72
2021/06/20 05:26:02;;;;;;;8.40;5.67;;;19.80;99.90;;;;;;5074944;28;20444;-73
2021/06/20 05:28:29;;;;;;;8.00;5.37;;;19.80;99.90;;;;;;5082862;28;20567;-73
2021/06/20 05:30:56;;;;;;;6.80;4.73;;;19.80;99.90;;;;;;5070626;28;20437;-73
2021/06/20 05:33:23;;;;;;;6.43;4.33;;;19.70;99.90;;;;;;5074517;28;20452;-73
2021/06/20 05:35:51;;;;;;;10.67;4.27;;;19.70;99.90;;;;;;5074430;28;20441;-73
2021/06/20 05:38:19;;;;;;;5.57;4.50;;;19.70;99.90;;;;;;5073979;28;20449;-73
2021/06/20 05:40:47;;;;;;;4.47;3.43;;;19.70;99.90;;;;;;5082666;28;20473;-74
2021/06/20 05:43:14;;;;;;;11.13;3.77;;;19.80;99.90;;;;;;5079750;28;20540;-74
2021/06/20 05:45:42;;;;;;;9.27;3.80;;;19.90;99.90;;;;;;5071989;28;20528;-74
2021/06/20 05:48:10;;;;;;;10.40;3.53;;;20.00;99.90;;;;;;5082024;28;20474;-74
2021/06/20 05:50:37;;;;;;;9.87;3.00;;;20.10;99.90;;;;;;5086360;28;20448;-74
2021/06/20 05:53:04;;;;;;;8.63;4.33;;;20.10;99.90;;;;;;5066952;28;20465;-73
2021/06/20 05:55:33;;;;;;;6.10;3.73;;;20.20;99.90;;;;;;5074079;28;20484;-73
2021/06/20 05:58:00;;;;;;;7.17;3.27;;;20.20;99.90;;;;;;5074125;28;20615;-73
2021/06/20 06:00:28;;;;;;;7.00;3.37;;;20.30;99.90;;;;;;5076176;28;20448;-71
2021/06/20 06:02:58;;;;;;;3.73;2.80;;;20.50;99.90;;;;;;5068594;28;20565;-72
2021/06/20 06:05:25;;;;;;;6.83;3.23;;;20.60;99.90;;;;;;5071042;28;20950;-72
2021/06/20 06:07:53;;;;;;;5.83;2.87;;;20.70;99.90;;;;;;5077037;28;20794;-73
2021/06/20 06:10:20;;;;;;;9.03;3.10;;;20.80;99.90;;;;;;5084804;28;20480;-73
2021/06/20 06:12:50;;;;;;;12.23;3.90;;;21.00;99.90;;;;;;5078844;28;20470;-73
2021/06/20 06:15:18;;;;;;;10.60;3.20;;;21.10;99.90;;;;;;5076002;28;20525;-73
2021/06/20 06:17:46;;;;;;;4.00;2.63;;;21.30;99.90;;;;;;5080826;28;20863;-74
2021/06/20 06:20:14;;;;;;;16.20;3.93;;;21.50;99.90;;;;;;5079602;28;20459;-74
2021/06/20 06:22:41;;;;;;;3.30;2.33;;;21.80;99.90;;;;;;5082118;28;20474;-73
2021/06/20 06:25:11;;;;;;;8.00;2.20;;;22.20;99.90;;;;;;5079630;28;20470;-73
2021/06/20 06:27:38;;;;;;;5.97;2.73;;;22.80;99.90;;;;;;5072170;28;20452;-73
2021/06/20 06:30:10;;;;;;;6.40;3.07;;;23.20;99.90;;;;;;5073304;28;20489;-73
2021/06/20 06:32:37;;;;;;;6.80;2.60;;;23.60;99.90;;;;;;5079440;28;20471;-72
2021/06/20 06:35:09;;;;;;;3.50;2.40;;;24.00;99.90;;;;;;5083405;28;20543;-74
2021/06/20 06:37:38;;;;;;;5.77;2.40;;;24.80;99.90;;;;;;5079792;28;20440;-73
2021/06/20 06:40:07;;;;;;;5.27;3.70;;;25.70;99.90;;;;;;5084350;28;20448;-73
2021/06/20 06:42:34;;;;;;;7.33;2.90;;;26.60;99.90;;;;;;5072566;28;20556;-73
2021/06/20 06:45:01;;;;;;;4.73;3.50;;;26.70;99.90;;;;;;5074193;28;20437;-74
2021/06/20 06:47:30;;;;;;;8.03;2.80;;;26.50;99.90;;;;;;5079970;28;20437;-75
2021/06/20 06:49:58;;;;;;;9.40;2.77;;;26.30;99.90;;;;;;5086065;28;20511;-74
2021/06/20 06:52:25;;;;;;;5.57;3.30;;;26.10;99.90;;;;;;5075186;28;20508;-72
2021/06/20 06:54:52;;;;;;;5.30;2.80;;;25.90;99.90;;;;;;5086480;28;20523;-72
2021/06/20 06:57:19;;;;;;;4.87;3.23;;;25.50;99.90;;;;;;5073716;28;20455;-74
2021/06/20 06:59:47;;;;;;;8.77;3.57;;;25.20;99.90;;;;;;5079752;28;20460;-73
2021/06/20 07:02:16;;;;;;;7.67;3.37;;;24.70;99.90;;;;;;5078390;28;20523;-75
2021/06/20 07:04:45;;;;;;;7.50;3.60;;;24.40;99.90;;;;;;5075387;28;20522;-74
2021/06/20 07:07:12;;;;;;;4.90;3.87;;;24.20;99.90;;;;;;5073379;28;20623;-74
2021/06/20 07:09:40;;;;;;;8.80;4.20;;;23.90;99.90;;;;;;5080508;28;20481;-74
2021/06/20 07:12:08;;;;;;;7.63;4.43;;;23.60;99.90;;;;;;5087736;28;20511;-74
2021/06/20 07:14:36;;;;;;;8.23;5.83;;;23.50;99.90;;;;;;5070710;28;20537;-72
2021/06/20 07:17:04;;;;;;;8.10;4.67;;;23.40;99.90;;;;;;5079769;28;20457;-74
2021/06/20 07:19:32;;;;;;;7.83;4.87;;;23.50;99.90;;;;;;5074798;28;20444;-74
2021/06/20 07:22:01;;;;;;;6.90;5.03;;;23.70;99.90;;;;;;5072843;28;20540;-73
2021/06/20 07:24:28;;;;;;;7.65;4.00;;;24.40;99.90;;;;;;5079178;28;20931;-75
2021/06/20 07:26:56;;;;;;;6.60;4.53;;;24.90;99.90;;;;;;5071872;28;20254;-76
2021/06/20 07:29:23;;;;;;;8.63;4.67;;;24.90;99.90;;;;;;5079307;28;20506;-75
2021/06/20 07:31:51;;;;;;;8.10;4.57;;;24.60;99.90;;;;;;5072125;28;20473;-73
2021/06/20 07:34:18;;;;;;;9.53;6.13;;;24.40;99.90;;;;;;5073755;28;20447;-75
2021/06/20 07:36:46;;;;;;;7.00;6.33;;;24.00;99.90;;;;;;5076411;28;20445;-75
2021/06/20 07:39:16;;;;;;;8.83;6.60;;;23.70;99.90;;;;;;5078699;28;20528;-73
2021/06/20 07:42:06;;;;;;;11.03;7.50;;;23.60;99.90;;;;;;5078549;28;20472;-76
2021/06/20 07:44:42;;;;;;;9.33;6.30;;;23.40;99.90;;;;;;5065359;28;20970;-74
2021/06/20 07:47:09;;;;;;;11.50;6.70;;;23.20;99.90;;;;;;5065793;28;20445;-75
2021/06/20 07:49:37;;;;;;;9.93;8.43;;;23.20;99.90;;;;;;5065130;28;20481;-74
2021/06/20 07:52:04;;;;;;;11.20;8.60;;;22.80;99.90;;;;;;5064793;28;20556;-74
2021/06/20 07:54:34;;;;;;;12.10;8.10;;;22.70;99.90;;;;;;5064986;28;20501;-76
2021/06/20 07:57:01;;;;;;;11.87;8.00;;;22.70;99.90;;;;;;5068572;28;20465;-75
2021/06/20 07:59:29;;;;;;;12.90;7.90;;;22.70;99.90;;;;;;5072300;28;20434;-74
2021/06/20 08:01:56;;;;;;;13.70;9.33;;;22.70;99.90;;;;;;5071614;28;20473;-76
2021/06/20 08:04:26;;;;;;;14.73;9.00;;;22.70;99.90;;;;;;5073910;28;20999;-74
2021/06/20 08:06:54;;;;;;;12.00;9.63;;;22.70;99.90;;;;;;5070604;28;20455;-74
2021/06/20 08:09:21;;;;;;;10.00;9.00;;;22.80;99.90;;;;;;5081318;28;20484;-74
2021/06/20 08:11:50;;;;;;;9.03;8.23;;;22.90;99.90;;;;;;5079552;28;20548;-74
2021/06/20 08:14:19;;;;;;;10.90;9.00;;;23.20;99.90;;;;;;5072557;28;20503;-73
2021/06/20 08:16:46;;;;;;;12.17;9.17;;;23.40;99.90;;;;;;5072540;28;20445;-74
2021/06/20 08:19:14;;;;;;;10.70;9.50;;;23.30;99.90;;;;;;5074227;28;20528;-73
2021/06/20 08:21:46;;;;;;;10.87;9.73;;;23.50;99.90;;;;;;5072871;28;20547;-76
2021/06/20 08:24:13;;;;;;;10.73;9.50;;;23.50;99.90;;;;;;5081095;28;20471;-73
2021/06/20 08:26:41;;;;;;;10.97;9.33;;;23.80;99.90;;;;;;5075302;28;20490;-72
2021/06/20 08:29:10;;;;;;;10.40;9.37;;;24.00;99.90;;;;;;5066919;28;20828;-73
2021/06/20 08:31:37;;;;;;;12.60;10.50;;;24.10;99.90;;;;;;5080181;28;20564;-74
2021/06/20 08:34:06;;;;;;;12.60;11.27;;;24.30;99.90;;;;;;5078252;28;20528;-73
2021/06/20 08:36:34;;;;;;;11.53;9.80;;;24.40;99.90;;;;;;5077033;28;20448;-74
2021/06/20 08:39:02;;;;;;;11.30;9.60;;;24.80;99.90;;;;;;5077796;28;20455;-73
2021/06/20 08:41:32;;;;;;;12.47;11.17;;;25.30;99.90;;;;;;5088207;28;20471;-71
2021/06/20 08:43:59;;;;;;;15.27;11.97;;;25.70;99.90;;;;;;5088271;28;20443;-71
2021/06/20 08:46:28;;;;;;;12.83;11.50;;;25.50;99.90;;;;;;5076132;28;20788;-76
2021/06/20 08:48:56;;;;;;;11.67;10.13;;;25.40;99.90;;;;;;5074746;28;20477;-72
2021/06/20 08:51:24;;;;;;;12.80;11.53;;;25.40;99.90;;;;;;5075684;28;20560;-75
2021/06/20 08:53:51;;;;;;;18.33;13.40;;;25.10;99.90;;;;;;5075398;28;20449;-73
2021/06/20 08:56:18;;;;;;;12.63;11.33;;;25.00;99.90;;;;;;5073382;28;20449;-73
2021/06/20 08:58:47;;;;;;;13.07;11.50;;;24.90;99.90;;;;;;5083774;28;20480;-73
2021/06/20 09:01:14;;;;;;;15.00;12.80;;;25.30;99.90;;;;;;5075788;28;20999;-72
2021/06/20 09:03:45;;;;;;;16.03;14.10;;;25.50;99.90;;;;;;5074709;28;20521;-71
2021/06/20 09:06:16;;;;;;;16.77;13.93;;;26.00;99.90;;;;;;5076285;28;20442;-74
2021/06/20 09:08:47;;;;;;;18.87;12.47;;;26.40;99.90;;;;;;5081291;28;20494;-71
2021/06/20 09:11:31;;;;;;;12.77;11.40;;;27.10;99.90;;;;;;5084532;28;20488;-71
2021/06/20 09:14:03;;;;;;;13.10;11.70;;;27.70;99.90;;;;;;5073107;28;20453;-71
2021/06/20 09:16:31;;;;;;;13.63;12.30;;;28.50;99.90;;;;;;5074510;28;20439;-71
2021/06/20 09:19:00;;;;;;;14.27;12.47;;;29.30;99.10;;;;;;5078468;28;20480;-71
2021/06/20 09:21:28;;;;;;;14.10;12.80;;;29.30;97.10;;;;;;5072845;28;20472;-72
2021/06/20 09:23:56;;;;;;;13.17;11.93;;;29.80;97.00;;;;;;5074941;28;20457;-70
2021/06/20 09:26:38;;;;;;;12.13;10.17;;;30.70;94.50;;;;;;5080187;28;20459;-73
2021/06/20 09:29:06;;;;;;;11.87;10.60;;;31.00;93.00;;;;;;5071940;28;20510;-73
2021/06/20 09:31:48;;;;;;;11.20;10.10;;;30.80;92.60;;;;;;5074391;28;20481;-74
2021/06/20 09:34:17;;;;;;;11.60;10.40;;;31.30;91.60;;;;;;5075916;28;20437;-72
2021/06/20 09:36:46;;;;;;;11.47;9.53;;;30.80;91.20;;;;;;5078873;28;20460;-74
2021/06/20 09:39:22;;;;;;;14.70;11.07;;;30.80;91.80;;;;;;5077059;28;20920;-75
2021/06/20 09:42:00;;;;;;;12.20;10.90;;;31.20;91.10;;;;;;5081278;28;20468;-73
2021/06/20 09:44:35;;;;;;;12.13;10.70;;;30.70;91.50;;;;;;5079030;28;20470;-73
2021/06/20 09:47:03;;;;;;;11.70;10.60;;;30.50;91.80;;;;;;5078133;28;20998;-73
2021/06/20 09:49:33;;;;;;;14.00;11.60;;;30.30;91.70;;;;;;5075633;28;20983;-73
2021/06/20 09:52:00;;;;;;;12.63;11.27;;;30.50;92.10;;;;;;5074179;28;20480;-72
2021/06/20 09:54:29;;;;;;;11.07;9.97;;;30.70;91.80;;;;;;5080194;28;20461;-72
2021/06/20 09:56:57;;;;;;;11.67;9.50;;;31.00;90.90;;;;;;5074116;28;20437;-73
2021/06/20 09:59:29;;;;;;;10.57;9.10;;;31.30;90.60;;;;;;5073402;28;20514;-74
2021/06/20 10:02:13;;;;;;;10.20;9.10;;;31.50;89.90;;;;;;5068124;28;20487;-72
2021/06/20 10:04:42;;;;;;;10.37;9.23;;;32.10;89.70;;;;;;5060734;28;20512;-78
2021/06/20 10:07:11;;;;;;;10.50;9.40;;;32.20;88.50;;;;;;5063869;28;20974;-73
2021/06/20 10:09:39;;;;;;;9.77;8.87;;;32.50;87.30;;;;;;5063515;28;20527;-74
2021/06/20 10:12:08;;;;;;;12.80;7.50;;;32.70;87.40;;;;;;5061430;28;20465;-74
2021/06/20 10:14:45;;;;;;;8.97;8.13;;;33.00;86.50;;;;;;5063604;28;20563;-73
2021/06/20 10:17:16;;;;;;;8.70;7.90;;;32.70;86.20;;;;;;5059073;28;20557;-73
2021/06/20 10:19:49;;;;;;;9.70;8.70;;;32.20;87.80;;;;;;5059856;28;20561;-73
2021/06/20 10:22:19;;;;;;;8.60;7.70;;;31.70;85.70;;;;;;5064207;28;20473;-74
2021/06/20 10:24:49;;;;;;;11.20;7.83;;;31.30;88.90;;;;;;5064151;28;20462;-73
2021/06/20 10:27:28;;;;;;;9.57;7.80;;;30.70;90.50;;;;;;5060889;28;20446;-73
2021/06/20 10:29:58;;;;;;;14.43;9.10;;;30.00;91.30;;;;;;5074827;28;20553;-75
2021/06/20 10:32:27;;;;;;;8.50;7.70;;;29.30;92.10;;;;;;5075250;28;20460;-75
2021/06/20 10:34:58;;;;;;;9.23;8.33;;;28.80;92.90;;;;;;5071547;28;20441;-76
2021/06/20 10:37:28;;;;;;;8.60;7.80;;;28.00;94.00;;;;;;5068055;28;20505;-75
2021/06/20 10:39:56;;;;;;;7.70;6.43;;;27.70;93.90;;;;;;5080469;28;20441;-73
2021/06/20 10:42:37;;;;;;;5.97;5.40;;;28.00;93.20;;;;;;5073038;28;21301;-73
2021/06/20 10:45:05;;;;;;;7.23;6.30;;;28.20;92.70;;;;;;5084463;28;20482;-73
2021/06/20 10:47:35;;;;;;;7.93;6.77;;;28.10;92.20;;;;;;5074349;28;20975;-75
2021/06/20 10:50:06;;;;;;;6.10;5.50;;;28.40;91.50;;;;;;5070196;28;20507;-74
2021/06/20 10:52:34;;;;;;;7.40;6.03;;;28.50;90.90;;;;;;5069439;28;20554;-74
2021/06/20 10:55:12;;;;;;;7.63;6.20;;;28.50;91.10;;;;;;5073832;28;20495;-72
2021/06/20 10:57:50;;;;;;;9.20;6.03;;;28.00;91.40;;;;;;5061660;28;20451;-74
2021/06/20 11:00:31;;;;;;;5.87;5.37;;;27.90;91.90;;;;;;5072490;28;20441;-73
2021/06/20 11:03:09;;;;;;;7.10;5.10;;;28.10;91.60;;;;;;5073883;28;20495;-76
2021/06/20 11:05:47;;;;;;;8.43;5.30;;;28.10;91.00;;;;;;5069835;28;20452;-75
2021/06/20 11:08:25;;;;;;;8.00;4.10;;;28.00;91.60;;;;;;5076854;28;20544;-75
2021/06/20 11:11:11;;;;;;;5.07;3.80;;;28.00;91.30;;;;;;5075100;28;20540;-76
2021/06/20 11:13:39;;;;;;;5.40;4.87;;;28.00;91.30;;;;;;5078938;28;20509;-75
2021/06/20 11:16:08;;;;;;;4.30;3.70;;;28.10;90.30;;;;;;5073365;28;20445;-76
2021/06/20 11:18:36;;;;;;;5.43;3.77;;;28.20;90.40;;;;;;5080032;28;20962;-77
2021/06/20 11:21:05;;;;;;;6.33;4.00;;;28.30;90.20;;;;;;5066623;28;20473;-75
2021/06/20 11:23:33;;;;;;;4.50;4.20;;;28.20;89.60;;;;;;5079244;28;20449;-77
2021/06/20 11:26:03;;;;;;;4.20;3.90;;;28.50;89.70;;;;;;5069334;28;20528;-77
2021/06/20 11:28:31;;;;;;;7.73;4.37;;;28.00;90.20;;;;;;5064046;28;20548;-75
2021/06/20 11:31:09;;;;;;;4.80;4.40;;;27.90;90.60;;;;;;5067605;28;20485;-75
2021/06/20 11:33:39;;;;;;;4.60;4.20;;;27.80;90.70;;;;;;5071869;28;20559;-76
2021/06/20 11:36:08;;;;;;;5.63;4.33;;;27.70;91.40;;;;;;5071014;28;20528;-74
2021/06/20 11:38:39;;;;;;;4.60;4.03;;;27.80;91.10;;;;;;5076435;28;20555;-73
2021/06/20 11:41:15;;;;;;;5.00;4.50;;;28.00;91.30;;;;;;5066618;28;20536;-74
2021/06/20 11:43:57;;;;;;;6.13;4.80;;;28.30;91.20;;;;;;5077855;28;20440;-76
2021/06/20 11:46:26;;;;;;;4.93;4.50;;;28.20;90.80;;;;;;5071733;28;20491;-76
2021/06/20 11:48:57;;;;;;;8.33;5.30;;;28.20;91.00;;;;;;5069648;28;20942;-75
2021/06/20 11:51:37;;;;;;;5.33;4.83;;;28.20;91.30;;;;;;5057196;28;20554;-74
2021/06/20 11:54:24;;;;;;;4.57;3.87;;;28.20;91.40;;;;;;5070207;28;20801;-75
2021/06/20 11:56:55;;;;;;;5.47;4.33;;;28.30;90.80;;;;;;5071176;28;20445;-75
2021/06/20 11:59:31;;;;;;;8.10;5.00;;;28.30;91.00;;;;;;5080082;28;20519;-74
2021/06/20 12:02:00;;;;;;;7.40;4.90;;;28.20;90.60;;;;;;5071988;28;20488;-76
2021/06/20 12:04:29;;;;;;;6.37;4.80;;;28.00;90.90;;;;;;5071953;28;20510;-74
2021/06/20 12:06:58;;;;;;;4.80;4.40;;;28.20;90.90;;;;;;5072327;28;20439;-73
2021/06/20 12:09:25;;;;;;;5.10;4.60;;;28.40;91.10;;;;;;5075223;28;20853;-73
2021/06/20 12:12:01;;;;;;;5.43;4.20;;;28.30;90.40;;;;;;5079029;28;20512;-74
2021/06/20 12:14:30;;;;;;;5.00;3.83;;;28.40;91.50;;;;;;5078258;28;20445;-75
2021/06/20 12:16:57;;;;;;;5.63;4.70;;;28.60;91.10;;;;;;5084875;28;20537;-76
2021/06/20 12:19:27;;;;;;;8.47;4.97;;;28.50;90.40;;;;;;5077405;28;20722;-75
2021/06/20 12:22:07;;;;;;;5.93;5.37;;;28.50;90.70;;;;;;5072092;28;20504;-75
2021/06/20 12:24:39;;;;;;;5.20;4.80;;;28.40;90.90;;;;;;5071693;28;20785;-74
2021/06/20 12:27:08;;;;;;;6.20;5.60;;;28.60;90.90;;;;;;5071002;28;20529;-75
2021/06/20 12:29:36;;;;;;;5.23;4.80;;;28.40;91.30;;;;;;5070521;28;20944;-73
2021/06/20 12:32:06;;;;;;;8.23;5.50;;;28.50;90.90;;;;;;5065576;28;20578;-75
2021/06/20 12:34:44;;;;;;;5.00;4.47;;;28.90;90.40;;;;;;5082089;28;20440;-74
2021/06/20 12:37:13;;;;;;;5.00;4.50;;;28.90;89.10;;;;;;5072918;28;20459;-75
2021/06/20 12:39:46;;;;;;;7.77;4.70;;;28.70;88.00;;;;;;5071708;28;20453;-74
2021/06/20 12:42:14;;;;;;;8.13;7.17;;;28.30;90.10;;;;;;5081681;28;20663;-75
2021/06/20 12:44:44;;;;;;;7.63;6.93;;;28.20;91.50;;;;;;5080526;28;20533;-75
2021/06/20 12:47:12;;;;;;;7.63;6.73;;;28.40;91.60;;;;;;5071993;28;20463;-75
2021/06/20 12:49:40;;;;;;;7.67;6.93;;;28.60;91.40;;;;;;5082802;28;20445;-75